sensor_id;sensor_type;location;lat;lon;timestamp;P1;durP1;ratioP1;P2;durP2;ratioP2
15643;SDS011;7921;43.586;1.408;2022-12-18T00:01:31;5.63;;;5.23;;
15643;SDS011;7921;43.586;1.408;2022-12-18T00:03:58;6.10;;;5.50;;
15643;SDS011;7921;43.586;1.408;2022-12-18T00:06:25;6.20;;;5.67;;
15643;SDS011;7921;43.586;1.408;2022-12-18T00:08:52;5.43;;;5.03;;
15643;SDS011;7921;43.586;1.408;2022-12-18T00:11:19;6.30;;;5.70;;
15643;SDS011;7921;43.586;1.408;2022-12-18T00:13:45;6.73;;;6.23;;
15643;SDS011;7921;43.586;1.408;2022-12-18T00:16:15;7.47;;;6.87;;
15643;SDS011;7921;43.586;1.408;2022-12-18T00:18:43;7.07;;;6.57;;
15643;SDS011;7921;43.586;1.408;2022-12-18T00:21:09;7.57;;;6.20;;
15643;SDS011;7921;43.586;1.408;2022-12-18T00:23:36;7.80;;;7.20;;
15643;SDS011;7921;43.586;1.408;2022-12-18T00:26:04;8.70;;;7.90;;
15643;SDS011;7921;43.586;1.408;2022-12-18T00:28:31;8.30;;;7.70;;
15643;SDS011;7921;43.586;1.408;2022-12-18T00:31:03;8.53;;;7.73;;
15643;SDS011;7921;43.586;1.408;2022-12-18T00:33:30;8.40;;;7.70;;
15643;SDS011;7921;43.586;1.408;2022-12-18T00:36:03;8.63;;;7.93;;
15643;SDS011;7921;43.586;1.408;2022-12-18T00:38:28;8.57;;;7.90;;
15643;SDS011;7921;43.586;1.408;2022-12-18T00:40:54;8.07;;;7.37;;
15643;SDS011;7921;43.586;1.408;2022-12-18T00:43:19;8.27;;;7.63;;
15643;SDS011;7921;43.586;1.408;2022-12-18T00:45:44;7.77;;;7.17;;
15643;SDS011;7921;43.586;1.408;2022-12-18T00:48:10;7.07;;;6.57;;
15643;SDS011;7921;43.586;1.408;2022-12-18T00:50:36;8.10;;;7.50;;
15643;SDS011;7921;43.586;1.408;2022-12-18T00:53:01;7.43;;;6.87;;
15643;SDS011;7921;43.586;1.408;2022-12-18T00:55:26;8.13;;;7.33;;
15643;SDS011;7921;43.586;1.408;2022-12-18T00:57:52;8.07;;;7.37;;
15643;SDS011;7921;43.586;1.408;2022-12-18T01:00:18;8.27;;;7.57;;
15643;SDS011;7921;43.586;1.408;2022-12-18T01:02:43;8.27;;;7.60;;
15643;SDS011;7921;43.586;1.408;2022-12-18T01:05:09;7.90;;;7.20;;
15643;SDS011;7921;43.586;1.408;2022-12-18T01:07:36;8.60;;;7.90;;
15643;SDS011;7921;43.586;1.408;2022-12-18T01:10:02;9.27;;;8.53;;
15643;SDS011;7921;43.586;1.408;2022-12-18T01:12:28;8.43;;;7.73;;
15643;SDS011;7921;43.586;1.408;2022-12-18T01:14:54;8.97;;;8.27;;
15643;SDS011;7921;43.586;1.408;2022-12-18T01:17:19;8.43;;;7.73;;
15643;SDS011;7921;43.586;1.408;2022-12-18T01:19:45;8.57;;;7.87;;
15643;SDS011;7921;43.586;1.408;2022-12-18T01:22:10;8.17;;;7.50;;
15643;SDS011;7921;43.586;1.408;2022-12-18T01:24:35;8.90;;;8.13;;
15643;SDS011;7921;43.586;1.408;2022-12-18T01:27:01;8.77;;;8.00;;
15643;SDS011;7921;43.586;1.408;2022-12-18T01:29:26;8.83;;;8.03;;
15643;SDS011;7921;43.586;1.408;2022-12-18T01:31:54;8.80;;;8.10;;
15643;SDS011;7921;43.586;1.408;2022-12-18T01:34:20;9.10;;;8.27;;
15643;SDS011;7921;43.586;1.408;2022-12-18T01:36:45;8.07;;;7.47;;
15643;SDS011;7921;43.586;1.408;2022-12-18T01:39:12;8.00;;;7.37;;
15643;SDS011;7921;43.586;1.408;2022-12-18T01:41:38;8.40;;;7.70;;
15643;SDS011;7921;43.586;1.408;2022-12-18T01:47:19;8.50;;;7.80;;
15643;SDS011;7921;43.586;1.408;2022-12-18T01:49:47;8.87;;;8.17;;
15643;SDS011;7921;43.586;1.408;2022-12-18T01:52:13;8.80;;;8.00;;
15643;SDS011;7921;43.586;1.408;2022-12-18T01:54:38;8.93;;;8.07;;
15643;SDS011;7921;43.586;1.408;2022-12-18T01:57:04;8.40;;;7.80;;
15643;SDS011;7921;43.586;1.408;2022-12-18T01:59:29;7.73;;;7.20;;
15643;SDS011;7921;43.586;1.408;2022-12-18T02:01:55;8.87;;;8.17;;
15643;SDS011;7921;43.586;1.408;2022-12-18T02:04:22;8.50;;;7.70;;
15643;SDS011;7921;43.586;1.408;2022-12-18T02:06:50;8.40;;;7.80;;
15643;SDS011;7921;43.586;1.408;2022-12-18T02:09:41;7.83;;;7.23;;
15643;SDS011;7921;43.586;1.408;2022-12-18T02:17:23;8.87;;;8.17;;
15643;SDS011;7921;43.586;1.408;2022-12-18T02:28:18;8.90;;;8.10;;
15643;SDS011;7921;43.586;1.408;2022-12-18T02:30:45;8.60;;;8.00;;
15643;SDS011;7921;43.586;1.408;2022-12-18T02:33:13;8.77;;;7.97;;
15643;SDS011;7921;43.586;1.408;2022-12-18T02:35:39;8.77;;;8.17;;
15643;SDS011;7921;43.586;1.408;2022-12-18T02:38:06;8.10;;;7.50;;
15643;SDS011;7921;43.586;1.408;2022-12-18T02:40:31;7.90;;;7.30;;
15643;SDS011;7921;43.586;1.408;2022-12-18T02:43:10;8.63;;;7.93;;
15643;SDS011;7921;43.586;1.408;2022-12-18T02:45:45;8.30;;;7.50;;
15643;SDS011;7921;43.586;1.408;2022-12-18T02:48:32;8.20;;;7.60;;
15643;SDS011;7921;43.586;1.408;2022-12-18T02:51:20;8.43;;;7.73;;
15643;SDS011;7921;43.586;1.408;2022-12-18T02:54:26;7.57;;;7.03;;
15643;SDS011;7921;43.586;1.408;2022-12-18T02:57:05;7.93;;;7.33;;
15643;SDS011;7921;43.586;1.408;2022-12-18T02:59:41;8.23;;;7.53;;
15643;SDS011;7921;43.586;1.408;2022-12-18T03:05:16;8.53;;;7.93;;
15643;SDS011;7921;43.586;1.408;2022-12-18T03:10:23;7.80;;;7.20;;
15643;SDS011;7921;43.586;1.408;2022-12-18T03:12:53;8.47;;;7.77;;
15643;SDS011;7921;43.586;1.408;2022-12-18T03:15:28;8.43;;;7.83;;
15643;SDS011;7921;43.586;1.408;2022-12-18T03:18:07;8.33;;;7.63;;
15643;SDS011;7921;43.586;1.408;2022-12-18T03:20:36;7.63;;;7.03;;
15643;SDS011;7921;43.586;1.408;2022-12-18T03:23:04;7.53;;;6.93;;
15643;SDS011;7921;43.586;1.408;2022-12-18T03:25:33;8.37;;;7.70;;
15643;SDS011;7921;43.586;1.408;2022-12-18T03:28:00;7.90;;;7.37;;
15643;SDS011;7921;43.586;1.408;2022-12-18T03:30:27;8.77;;;8.07;;
15643;SDS011;7921;43.586;1.408;2022-12-18T03:33:06;8.40;;;7.70;;
15643;SDS011;7921;43.586;1.408;2022-12-18T03:35:35;7.20;;;6.50;;
15643;SDS011;7921;43.586;1.408;2022-12-18T03:38:03;6.80;;;6.20;;
15643;SDS011;7921;43.586;1.408;2022-12-18T03:40:52;5.67;;;5.17;;
15643;SDS011;7921;43.586;1.408;2022-12-18T03:46:07;5.97;;;5.37;;
15643;SDS011;7921;43.586;1.408;2022-12-18T03:48:50;6.57;;;5.97;;
15643;SDS011;7921;43.586;1.408;2022-12-18T03:51:19;8.13;;;7.53;;
15643;SDS011;7921;43.586;1.408;2022-12-18T03:53:55;6.27;;;5.37;;
15643;SDS011;7921;43.586;1.408;2022-12-18T03:56:23;6.43;;;5.90;;
15643;SDS011;7921;43.586;1.408;2022-12-18T03:58:50;8.33;;;7.63;;
15643;SDS011;7921;43.586;1.408;2022-12-18T04:01:17;8.80;;;8.13;;
15643;SDS011;7921;43.586;1.408;2022-12-18T04:03:47;7.43;;;6.63;;
15643;SDS011;7921;43.586;1.408;2022-12-18T04:06:14;6.87;;;6.27;;
15643;SDS011;7921;43.586;1.408;2022-12-18T04:08:40;6.90;;;6.10;;
15643;SDS011;7921;43.586;1.408;2022-12-18T04:11:06;7.10;;;6.30;;
15643;SDS011;7921;43.586;1.408;2022-12-18T04:13:36;6.63;;;5.90;;
15643;SDS011;7921;43.586;1.408;2022-12-18T04:16:02;6.77;;;6.03;;
15643;SDS011;7921;43.586;1.408;2022-12-18T04:18:27;8.27;;;6.20;;
15643;SDS011;7921;43.586;1.408;2022-12-18T04:20:53;7.10;;;5.40;;
15643;SDS011;7921;43.586;1.408;2022-12-18T04:23:18;6.17;;;4.53;;
15643;SDS011;7921;43.586;1.408;2022-12-18T04:25:43;7.33;;;6.00;;
15643;SDS011;7921;43.586;1.408;2022-12-18T04:28:09;7.57;;;6.93;;
15643;SDS011;7921;43.586;1.408;2022-12-18T04:30:34;8.10;;;7.40;;
15643;SDS011;7921;43.586;1.408;2022-12-18T04:33:00;6.53;;;5.73;;
15643;SDS011;7921;43.586;1.408;2022-12-18T04:35:25;7.93;;;7.13;;
15643;SDS011;7921;43.586;1.408;2022-12-18T04:37:51;7.67;;;6.37;;
15643;SDS011;7921;43.586;1.408;2022-12-18T04:40:16;8.87;;;8.07;;
15643;SDS011;7921;43.586;1.408;2022-12-18T04:42:41;8.20;;;7.60;;
15643;SDS011;7921;43.586;1.408;2022-12-18T04:45:07;8.73;;;7.93;;
15643;SDS011;7921;43.586;1.408;2022-12-18T04:47:33;8.10;;;7.40;;
15643;SDS011;7921;43.586;1.408;2022-12-18T04:49:58;7.80;;;7.20;;
15643;SDS011;7921;43.586;1.408;2022-12-18T04:52:24;8.23;;;7.47;;
15643;SDS011;7921;43.586;1.408;2022-12-18T04:54:49;7.17;;;6.57;;
15643;SDS011;7921;43.586;1.408;2022-12-18T04:57:15;6.40;;;5.80;;
15643;SDS011;7921;43.586;1.408;2022-12-18T04:59:40;6.70;;;6.10;;
15643;SDS011;7921;43.586;1.408;2022-12-18T05:02:05;6.13;;;5.57;;
15643;SDS011;7921;43.586;1.408;2022-12-18T05:04:31;7.00;;;6.40;;
15643;SDS011;7921;43.586;1.408;2022-12-18T05:06:56;6.90;;;6.30;;
15643;SDS011;7921;43.586;1.408;2022-12-18T05:09:22;6.50;;;5.77;;
15643;SDS011;7921;43.586;1.408;2022-12-18T05:11:47;5.77;;;5.27;;
15643;SDS011;7921;43.586;1.408;2022-12-18T05:14:13;6.30;;;5.70;;
15643;SDS011;7921;43.586;1.408;2022-12-18T05:16:38;7.13;;;6.43;;
15643;SDS011;7921;43.586;1.408;2022-12-18T05:19:04;7.50;;;6.80;;
15643;SDS011;7921;43.586;1.408;2022-12-18T05:21:29;6.70;;;6.00;;
15643;SDS011;7921;43.586;1.408;2022-12-18T05:23:54;6.07;;;5.47;;
15643;SDS011;7921;43.586;1.408;2022-12-18T05:26:20;7.10;;;6.50;;
15643;SDS011;7921;43.586;1.408;2022-12-18T05:28:45;5.37;;;4.87;;
15643;SDS011;7921;43.586;1.408;2022-12-18T05:31:11;5.53;;;5.00;;
15643;SDS011;7921;43.586;1.408;2022-12-18T05:33:36;5.27;;;4.77;;
15643;SDS011;7921;43.586;1.408;2022-12-18T05:36:03;5.60;;;5.10;;
15643;SDS011;7921;43.586;1.408;2022-12-18T05:38:30;6.77;;;6.17;;
15643;SDS011;7921;43.586;1.408;2022-12-18T05:40:56;6.77;;;6.13;;
15643;SDS011;7921;43.586;1.408;2022-12-18T05:43:22;6.07;;;5.47;;
15643;SDS011;7921;43.586;1.408;2022-12-18T05:45:48;5.47;;;4.93;;
15643;SDS011;7921;43.586;1.408;2022-12-18T05:48:14;5.70;;;5.20;;
15643;SDS011;7921;43.586;1.408;2022-12-18T05:50:41;5.47;;;4.93;;
15643;SDS011;7921;43.586;1.408;2022-12-18T05:53:07;4.90;;;4.50;;
15643;SDS011;7921;43.586;1.408;2022-12-18T05:55:33;5.17;;;4.73;;
15643;SDS011;7921;43.586;1.408;2022-12-18T05:58:00;6.20;;;5.70;;
15643;SDS011;7921;43.586;1.408;2022-12-18T06:00:25;5.00;;;4.60;;
15643;SDS011;7921;43.586;1.408;2022-12-18T06:02:51;5.13;;;4.63;;
15643;SDS011;7921;43.586;1.408;2022-12-18T06:05:16;6.70;;;4.70;;
15643;SDS011;7921;43.586;1.408;2022-12-18T06:07:41;4.57;;;4.17;;
15643;SDS011;7921;43.586;1.408;2022-12-18T06:10:07;4.57;;;4.13;;
15643;SDS011;7921;43.586;1.408;2022-12-18T06:12:32;5.23;;;4.70;;
15643;SDS011;7921;43.586;1.408;2022-12-18T06:15:01;5.30;;;4.87;;
15643;SDS011;7921;43.586;1.408;2022-12-18T06:17:30;4.93;;;4.53;;
15643;SDS011;7921;43.586;1.408;2022-12-18T06:19:56;4.87;;;4.47;;
15643;SDS011;7921;43.586;1.408;2022-12-18T06:22:21;4.83;;;4.33;;
15643;SDS011;7921;43.586;1.408;2022-12-18T06:24:47;4.30;;;3.90;;
15643;SDS011;7921;43.586;1.408;2022-12-18T06:27:12;5.87;;;4.53;;
15643;SDS011;7921;43.586;1.408;2022-12-18T06:29:38;5.53;;;5.03;;
15643;SDS011;7921;43.586;1.408;2022-12-18T06:32:04;4.87;;;4.40;;
15643;SDS011;7921;43.586;1.408;2022-12-18T06:34:29;5.27;;;4.77;;
15643;SDS011;7921;43.586;1.408;2022-12-18T06:36:55;4.30;;;3.70;;
15643;SDS011;7921;43.586;1.408;2022-12-18T06:39:20;4.53;;;4.00;;
15643;SDS011;7921;43.586;1.408;2022-12-18T06:41:45;5.07;;;4.67;;
15643;SDS011;7921;43.586;1.408;2022-12-18T06:44:11;4.73;;;4.37;;
15643;SDS011;7921;43.586;1.408;2022-12-18T06:46:36;5.03;;;4.63;;
15643;SDS011;7921;43.586;1.408;2022-12-18T06:49:02;4.33;;;3.93;;
15643;SDS011;7921;43.586;1.408;2022-12-18T06:51:28;6.17;;;3.43;;
15643;SDS011;7921;43.586;1.408;2022-12-18T06:53:54;4.40;;;4.00;;
15643;SDS011;7921;43.586;1.408;2022-12-18T06:56:19;5.20;;;3.70;;
15643;SDS011;7921;43.586;1.408;2022-12-18T06:58:45;4.47;;;4.13;;
15643;SDS011;7921;43.586;1.408;2022-12-18T07:01:11;4.30;;;3.90;;
15643;SDS011;7921;43.586;1.408;2022-12-18T07:03:37;4.20;;;3.90;;
15643;SDS011;7921;43.586;1.408;2022-12-18T07:06:03;4.97;;;4.03;;
15643;SDS011;7921;43.586;1.408;2022-12-18T07:08:29;4.53;;;4.00;;
15643;SDS011;7921;43.586;1.408;2022-12-18T07:10:55;5.63;;;5.03;;
15643;SDS011;7921;43.586;1.408;2022-12-18T07:13:20;4.80;;;4.40;;
15643;SDS011;7921;43.586;1.408;2022-12-18T07:15:46;4.93;;;4.53;;
15643;SDS011;7921;43.586;1.408;2022-12-18T07:18:11;4.67;;;4.30;;
15643;SDS011;7921;43.586;1.408;2022-12-18T07:20:37;4.60;;;4.30;;
15643;SDS011;7921;43.586;1.408;2022-12-18T07:23:03;4.80;;;4.40;;
15643;SDS011;7921;43.586;1.408;2022-12-18T07:25:28;4.63;;;4.23;;
15643;SDS011;7921;43.586;1.408;2022-12-18T07:27:54;5.43;;;4.97;;
15643;SDS011;7921;43.586;1.408;2022-12-18T07:30:19;4.67;;;4.23;;
15643;SDS011;7921;43.586;1.408;2022-12-18T07:32:45;4.97;;;4.57;;
15643;SDS011;7921;43.586;1.408;2022-12-18T07:35:10;4.73;;;4.43;;
15643;SDS011;7921;43.586;1.408;2022-12-18T07:37:35;5.63;;;4.70;;
15643;SDS011;7921;43.586;1.408;2022-12-18T07:40:01;7.50;;;4.30;;
15643;SDS011;7921;43.586;1.408;2022-12-18T07:42:26;4.20;;;3.80;;
15643;SDS011;7921;43.586;1.408;2022-12-18T07:44:58;4.37;;;3.63;;
15643;SDS011;7921;43.586;1.408;2022-12-18T07:47:24;5.37;;;4.87;;
15643;SDS011;7921;43.586;1.408;2022-12-18T07:49:50;4.93;;;4.53;;
15643;SDS011;7921;43.586;1.408;2022-12-18T07:52:15;4.97;;;4.57;;
15643;SDS011;7921;43.586;1.408;2022-12-18T07:54:41;5.53;;;4.50;;
15643;SDS011;7921;43.586;1.408;2022-12-18T07:57:06;4.80;;;4.40;;
15643;SDS011;7921;43.586;1.408;2022-12-18T07:59:32;5.10;;;4.70;;
15643;SDS011;7921;43.586;1.408;2022-12-18T08:01:58;4.73;;;4.33;;
15643;SDS011;7921;43.586;1.408;2022-12-18T08:04:23;5.50;;;5.00;;
15643;SDS011;7921;43.586;1.408;2022-12-18T08:06:49;5.60;;;5.10;;
15643;SDS011;7921;43.586;1.408;2022-12-18T08:09:14;8.23;;;5.23;;
15643;SDS011;7921;43.586;1.408;2022-12-18T08:11:40;5.13;;;4.73;;
15643;SDS011;7921;43.586;1.408;2022-12-18T08:14:05;5.57;;;4.60;;
15643;SDS011;7921;43.586;1.408;2022-12-18T08:16:31;5.33;;;4.93;;
15643;SDS011;7921;43.586;1.408;2022-12-18T08:18:56;4.97;;;4.57;;
15643;SDS011;7921;43.586;1.408;2022-12-18T08:21:25;5.20;;;4.80;;
15643;SDS011;7921;43.586;1.408;2022-12-18T08:23:53;5.63;;;5.20;;
15643;SDS011;7921;43.586;1.408;2022-12-18T08:26:19;5.13;;;4.63;;
15643;SDS011;7921;43.586;1.408;2022-12-18T08:28:45;4.97;;;4.67;;
15643;SDS011;7921;43.586;1.408;2022-12-18T08:31:11;4.97;;;4.57;;
15643;SDS011;7921;43.586;1.408;2022-12-18T08:33:36;5.70;;;5.10;;
15643;SDS011;7921;43.586;1.408;2022-12-18T08:36:03;5.80;;;5.30;;
15643;SDS011;7921;43.586;1.408;2022-12-18T08:38:28;4.87;;;4.47;;
15643;SDS011;7921;43.586;1.408;2022-12-18T08:41:04;5.17;;;4.70;;
15643;SDS011;7921;43.586;1.408;2022-12-18T08:43:31;5.43;;;4.83;;
15643;SDS011;7921;43.586;1.408;2022-12-18T08:46:15;4.87;;;4.47;;
15643;SDS011;7921;43.586;1.408;2022-12-18T08:48:40;5.23;;;4.83;;
15643;SDS011;7921;43.586;1.408;2022-12-18T08:51:06;5.03;;;4.63;;
15643;SDS011;7921;43.586;1.408;2022-12-18T08:53:31;5.17;;;4.70;;
15643;SDS011;7921;43.586;1.408;2022-12-18T08:55:57;5.43;;;5.00;;
15643;SDS011;7921;43.586;1.408;2022-12-18T08:58:22;5.03;;;4.53;;
15643;SDS011;7921;43.586;1.408;2022-12-18T09:00:48;5.20;;;4.70;;
15643;SDS011;7921;43.586;1.408;2022-12-18T09:03:14;5.23;;;4.83;;
15643;SDS011;7921;43.586;1.408;2022-12-18T09:05:41;5.20;;;4.70;;
15643;SDS011;7921;43.586;1.408;2022-12-18T09:08:06;5.10;;;4.70;;
15643;SDS011;7921;43.586;1.408;2022-12-18T09:10:32;5.17;;;4.70;;
15643;SDS011;7921;43.586;1.408;2022-12-18T09:12:58;5.03;;;4.67;;
15643;SDS011;7921;43.586;1.408;2022-12-18T09:15:23;5.07;;;4.67;;
15643;SDS011;7921;43.586;1.408;2022-12-18T09:17:48;5.57;;;5.07;;
15643;SDS011;7921;43.586;1.408;2022-12-18T09:20:15;4.53;;;4.17;;
15643;SDS011;7921;43.586;1.408;2022-12-18T09:22:41;4.60;;;4.30;;
15643;SDS011;7921;43.586;1.408;2022-12-18T09:25:06;4.67;;;4.23;;
15643;SDS011;7921;43.586;1.408;2022-12-18T09:27:35;4.73;;;4.43;;
15643;SDS011;7921;43.586;1.408;2022-12-18T09:30:00;5.37;;;4.90;;
15643;SDS011;7921;43.586;1.408;2022-12-18T09:32:26;5.33;;;4.90;;
15643;SDS011;7921;43.586;1.408;2022-12-18T09:34:51;5.20;;;4.70;;
15643;SDS011;7921;43.586;1.408;2022-12-18T09:37:17;4.80;;;4.20;;
15643;SDS011;7921;43.586;1.408;2022-12-18T09:39:42;4.87;;;4.47;;
15643;SDS011;7921;43.586;1.408;2022-12-18T09:42:09;5.03;;;4.53;;
15643;SDS011;7921;43.586;1.408;2022-12-18T09:44:47;5.10;;;4.60;;
15643;SDS011;7921;43.586;1.408;2022-12-18T09:47:20;4.70;;;4.30;;
15643;SDS011;7921;43.586;1.408;2022-12-18T09:49:56;5.10;;;4.60;;
15643;SDS011;7921;43.586;1.408;2022-12-18T09:52:32;4.43;;;4.10;;
15643;SDS011;7921;43.586;1.408;2022-12-18T09:57:56;4.33;;;4.03;;
15643;SDS011;7921;43.586;1.408;2022-12-18T10:00:23;4.23;;;3.90;;
15643;SDS011;7921;43.586;1.408;2022-12-18T10:02:50;4.30;;;3.90;;
15643;SDS011;7921;43.586;1.408;2022-12-18T10:05:20;4.33;;;4.03;;
15643;SDS011;7921;43.586;1.408;2022-12-18T10:11:16;5.37;;;4.13;;
15643;SDS011;7921;43.586;1.408;2022-12-18T10:25:22;3.83;;;3.47;;
15643;SDS011;7921;43.586;1.408;2022-12-18T10:27:48;3.87;;;3.30;;
15643;SDS011;7921;43.586;1.408;2022-12-18T10:30:19;4.70;;;3.27;;
15643;SDS011;7921;43.586;1.408;2022-12-18T10:32:46;3.60;;;3.30;;
15643;SDS011;7921;43.586;1.408;2022-12-18T10:35:25;3.40;;;3.10;;
15643;SDS011;7921;43.586;1.408;2022-12-18T10:38:03;3.47;;;3.17;;
15643;SDS011;7921;43.586;1.408;2022-12-18T10:40:30;3.50;;;3.20;;
15643;SDS011;7921;43.586;1.408;2022-12-18T10:43:10;3.30;;;3.00;;
15643;SDS011;7921;43.586;1.408;2022-12-18T10:45:37;3.63;;;3.33;;
15643;SDS011;7921;43.586;1.408;2022-12-18T10:48:02;3.23;;;2.93;;
15643;SDS011;7921;43.586;1.408;2022-12-18T10:50:32;3.53;;;3.23;;
15643;SDS011;7921;43.586;1.408;2022-12-18T10:52:59;3.40;;;3.03;;
15643;SDS011;7921;43.586;1.408;2022-12-18T10:55:47;3.40;;;3.10;;
15643;SDS011;7921;43.586;1.408;2022-12-18T11:00:48;3.33;;;3.13;;
15643;SDS011;7921;43.586;1.408;2022-12-18T11:03:30;3.23;;;3.00;;
15643;SDS011;7921;43.586;1.408;2022-12-18T11:06:23;3.27;;;2.97;;
15643;SDS011;7921;43.586;1.408;2022-12-18T11:09:05;3.85;;;3.13;;
15643;SDS011;7921;43.586;1.408;2022-12-18T11:11:43;3.60;;;3.13;;
15643;SDS011;7921;43.586;1.408;2022-12-18T11:14:18;2.93;;;2.73;;
15643;SDS011;7921;43.586;1.408;2022-12-18T11:16:52;2.80;;;2.60;;
15643;SDS011;7921;43.586;1.408;2022-12-18T11:22:03;2.60;;;2.40;;
15643;SDS011;7921;43.586;1.408;2022-12-18T11:24:42;3.57;;;3.27;;
15643;SDS011;7921;43.586;1.408;2022-12-18T11:27:16;2.57;;;2.47;;
15643;SDS011;7921;43.586;1.408;2022-12-18T11:29:43;3.37;;;3.10;;
15643;SDS011;7921;43.586;1.408;2022-12-18T11:34:41;5.97;;;5.23;;
15643;SDS011;7921;43.586;1.408;2022-12-18T11:37:10;8.50;;;7.67;;
15643;SDS011;7921;43.586;1.408;2022-12-18T11:39:37;4.73;;;4.17;;
15643;SDS011;7921;43.586;1.408;2022-12-18T11:42:12;4.70;;;4.00;;
15643;SDS011;7921;43.586;1.408;2022-12-18T11:44:48;4.83;;;3.90;;
15643;SDS011;7921;43.586;1.408;2022-12-18T11:49:58;4.27;;;3.87;;
15643;SDS011;7921;43.586;1.408;2022-12-18T11:52:26;5.17;;;4.70;;
15643;SDS011;7921;43.586;1.408;2022-12-18T11:54:58;6.00;;;5.40;;
15643;SDS011;7921;43.586;1.408;2022-12-18T11:57:40;3.33;;;3.03;;
15643;SDS011;7921;43.586;1.408;2022-12-18T12:00:15;3.00;;;2.80;;
15643;SDS011;7921;43.586;1.408;2022-12-18T12:03:00;3.30;;;2.83;;
15643;SDS011;7921;43.586;1.408;2022-12-18T12:19:26;2.90;;;2.53;;
15643;SDS011;7921;43.586;1.408;2022-12-18T12:27:52;5.30;;;3.30;;
15643;SDS011;7921;43.586;1.408;2022-12-18T12:30:21;3.00;;;2.80;;
15643;SDS011;7921;43.586;1.408;2022-12-18T12:32:58;3.57;;;3.23;;
15643;SDS011;7921;43.586;1.408;2022-12-18T12:38:10;3.00;;;2.80;;
15643;SDS011;7921;43.586;1.408;2022-12-18T12:40:46;3.60;;;3.30;;
15643;SDS011;7921;43.586;1.408;2022-12-18T12:50:53;3.33;;;3.03;;
15643;SDS011;7921;43.586;1.408;2022-12-18T12:53:22;4.07;;;3.37;;
15643;SDS011;7921;43.586;1.408;2022-12-18T12:55:51;3.63;;;3.33;;
15643;SDS011;7921;43.586;1.408;2022-12-18T12:58:21;3.30;;;3.00;;
15643;SDS011;7921;43.586;1.408;2022-12-18T13:01:21;3.37;;;3.03;;
15643;SDS011;7921;43.586;1.408;2022-12-18T13:06:47;3.97;;;3.57;;
15643;SDS011;7921;43.586;1.408;2022-12-18T13:09:26;3.40;;;2.97;;
15643;SDS011;7921;43.586;1.408;2022-12-18T13:11:55;4.27;;;3.00;;
15643;SDS011;7921;43.586;1.408;2022-12-18T13:14:46;3.30;;;2.90;;
15643;SDS011;7921;43.586;1.408;2022-12-18T13:19:49;4.47;;;3.43;;
15643;SDS011;7921;43.586;1.408;2022-12-18T13:22:22;3.43;;;3.13;;
15643;SDS011;7921;43.586;1.408;2022-12-18T13:24:49;3.23;;;3.03;;
15643;SDS011;7921;43.586;1.408;2022-12-18T13:30:27;4.00;;;3.20;;
15643;SDS011;7921;43.586;1.408;2022-12-18T13:35:40;3.30;;;3.10;;
15643;SDS011;7921;43.586;1.408;2022-12-18T13:48:26;3.70;;;3.33;;
15643;SDS011;7921;43.586;1.408;2022-12-18T13:51:03;3.50;;;3.20;;
15643;SDS011;7921;43.586;1.408;2022-12-18T13:53:33;3.73;;;3.40;;
15643;SDS011;7921;43.586;1.408;2022-12-18T13:56:01;4.13;;;3.67;;
15643;SDS011;7921;43.586;1.408;2022-12-18T13:58:27;3.30;;;3.00;;
15643;SDS011;7921;43.586;1.408;2022-12-18T14:00:53;3.80;;;3.50;;
15643;SDS011;7921;43.586;1.408;2022-12-18T14:03:28;4.37;;;3.80;;
15643;SDS011;7921;43.586;1.408;2022-12-18T14:06:06;3.60;;;3.30;;
15643;SDS011;7921;43.586;1.408;2022-12-18T14:08:37;4.07;;;3.50;;
15643;SDS011;7921;43.586;1.408;2022-12-18T14:11:04;3.57;;;3.27;;
15643;SDS011;7921;43.586;1.408;2022-12-18T14:13:39;3.80;;;3.50;;
15643;SDS011;7921;43.586;1.408;2022-12-18T14:16:06;3.70;;;3.33;;
15643;SDS011;7921;43.586;1.408;2022-12-18T14:21:15;3.70;;;3.37;;
15643;SDS011;7921;43.586;1.408;2022-12-18T14:23:43;4.40;;;3.43;;
15643;SDS011;7921;43.586;1.408;2022-12-18T14:26:19;3.93;;;3.53;;
15643;SDS011;7921;43.586;1.408;2022-12-18T14:28:54;4.10;;;3.67;;
15643;SDS011;7921;43.586;1.408;2022-12-18T14:31:27;3.77;;;3.27;;
15643;SDS011;7921;43.586;1.408;2022-12-18T14:33:54;4.50;;;3.40;;
15643;SDS011;7921;43.586;1.408;2022-12-18T14:36:24;3.73;;;3.13;;
15643;SDS011;7921;43.586;1.408;2022-12-18T14:38:51;3.67;;;3.37;;
15643;SDS011;7921;43.586;1.408;2022-12-18T14:41:24;3.60;;;3.30;;
15643;SDS011;7921;43.586;1.408;2022-12-18T14:43:50;3.97;;;3.67;;
15643;SDS011;7921;43.586;1.408;2022-12-18T14:46:32;3.60;;;3.30;;
15643;SDS011;7921;43.586;1.408;2022-12-18T14:49:03;3.63;;;3.33;;
15643;SDS011;7921;43.586;1.408;2022-12-18T14:51:48;3.80;;;3.23;;
15643;SDS011;7921;43.586;1.408;2022-12-18T14:54:16;4.20;;;3.80;;
15643;SDS011;7921;43.586;1.408;2022-12-18T14:56:44;3.73;;;3.43;;
15643;SDS011;7921;43.586;1.408;2022-12-18T14:59:24;4.20;;;3.80;;
15643;SDS011;7921;43.586;1.408;2022-12-18T15:04:29;4.40;;;4.00;;
15643;SDS011;7921;43.586;1.408;2022-12-18T15:09:34;4.43;;;4.03;;
15643;SDS011;7921;43.586;1.408;2022-12-18T15:12:00;4.30;;;3.90;;
15643;SDS011;7921;43.586;1.408;2022-12-18T15:17:00;4.57;;;3.97;;
15643;SDS011;7921;43.586;1.408;2022-12-18T15:19:37;5.23;;;4.50;;
15643;SDS011;7921;43.586;1.408;2022-12-18T15:22:11;6.03;;;3.57;;
15643;SDS011;7921;43.586;1.408;2022-12-18T15:24:42;4.77;;;4.37;;
15643;SDS011;7921;43.586;1.408;2022-12-18T15:27:19;3.97;;;3.67;;
15643;SDS011;7921;43.586;1.408;2022-12-18T15:32:46;4.07;;;3.40;;
15643;SDS011;7921;43.586;1.408;2022-12-18T15:37:45;4.33;;;3.60;;
15643;SDS011;7921;43.586;1.408;2022-12-18T15:40:17;4.47;;;4.07;;
15643;SDS011;7921;43.586;1.408;2022-12-18T15:42:45;4.00;;;3.43;;
15643;SDS011;7921;43.586;1.408;2022-12-18T15:45:29;5.07;;;3.83;;
15643;SDS011;7921;43.586;1.408;2022-12-18T15:47:55;4.03;;;3.43;;
15643;SDS011;7921;43.586;1.408;2022-12-18T15:50:20;5.20;;;4.00;;
15643;SDS011;7921;43.586;1.408;2022-12-18T15:52:47;5.07;;;4.10;;
15643;SDS011;7921;43.586;1.408;2022-12-18T15:55:15;3.83;;;3.40;;
15643;SDS011;7921;43.586;1.408;2022-12-18T15:58:04;4.03;;;3.73;;
15643;SDS011;7921;43.586;1.408;2022-12-18T16:00:31;4.07;;;3.77;;
15643;SDS011;7921;43.586;1.408;2022-12-18T16:02:56;4.03;;;3.60;;
15643;SDS011;7921;43.586;1.408;2022-12-18T16:05:22;4.20;;;3.80;;
15643;SDS011;7921;43.586;1.408;2022-12-18T16:07:48;4.43;;;3.67;;
15643;SDS011;7921;43.586;1.408;2022-12-18T16:10:14;3.77;;;3.47;;
15643;SDS011;7921;43.586;1.408;2022-12-18T16:12:40;5.10;;;3.90;;
15643;SDS011;7921;43.586;1.408;2022-12-18T16:15:06;4.27;;;3.87;;
15643;SDS011;7921;43.586;1.408;2022-12-18T16:17:31;5.57;;;3.77;;
15643;SDS011;7921;43.586;1.408;2022-12-18T16:19:57;3.97;;;3.57;;
15643;SDS011;7921;43.586;1.408;2022-12-18T16:22:29;5.23;;;3.90;;
15643;SDS011;7921;43.586;1.408;2022-12-18T16:24:55;4.73;;;4.20;;
15643;SDS011;7921;43.586;1.408;2022-12-18T16:27:21;4.57;;;4.17;;
15643;SDS011;7921;43.586;1.408;2022-12-18T16:29:47;4.60;;;3.73;;
15643;SDS011;7921;43.586;1.408;2022-12-18T16:32:14;4.67;;;4.07;;
15643;SDS011;7921;43.586;1.408;2022-12-18T16:34:40;4.33;;;3.97;;
15643;SDS011;7921;43.586;1.408;2022-12-18T16:37:07;4.27;;;3.80;;
15643;SDS011;7921;43.586;1.408;2022-12-18T16:39:34;4.07;;;3.40;;
15643;SDS011;7921;43.586;1.408;2022-12-18T16:42:00;5.93;;;3.80;;
15643;SDS011;7921;43.586;1.408;2022-12-18T16:44:30;4.67;;;4.27;;
15643;SDS011;7921;43.586;1.408;2022-12-18T16:46:55;4.23;;;3.83;;
15643;SDS011;7921;43.586;1.408;2022-12-18T16:49:26;4.93;;;3.87;;
15643;SDS011;7921;43.586;1.408;2022-12-18T16:51:52;5.20;;;4.30;;
15643;SDS011;7921;43.586;1.408;2022-12-18T16:54:18;7.13;;;4.33;;
15643;SDS011;7921;43.586;1.408;2022-12-18T16:56:44;6.03;;;3.97;;
15643;SDS011;7921;43.586;1.408;2022-12-18T16:59:10;4.73;;;4.17;;
15643;SDS011;7921;43.586;1.408;2022-12-18T17:01:37;4.70;;;4.30;;
15643;SDS011;7921;43.586;1.408;2022-12-18T17:04:03;5.30;;;4.80;;
15643;SDS011;7921;43.586;1.408;2022-12-18T17:06:30;5.37;;;4.37;;
15643;SDS011;7921;43.586;1.408;2022-12-18T17:08:58;7.33;;;4.53;;
15643;SDS011;7921;43.586;1.408;2022-12-18T17:11:25;5.53;;;4.77;;